Time;durP1;ratioP1;P1;durP2;ratioP2;P2;SDS_P1;SDS_P2;PMS_P1;PMS_P2;Temp;Humidity;BMP_temperature;BMP_pressure;BME280_temperature;BME280_humidity;BME280_pressure;Samples;Min_cycle;Max_cycle;Signal;HPM_P1;HPM_P2
2022/12/10 00:01:27;;;;;;;74.78;34.47;;;4.60;99.90;;;;;;5002119;28;20049;-77
2022/12/10 00:03:54;;;;;;;75.97;35.28;;;4.60;99.90;;;;;;5003498;28;20038;-77
2022/12/10 00:06:23;;;;;;;62.72;32.28;;;4.60;99.90;;;;;;5010992;28;20041;-77
2022/12/10 00:08:50;;;;;;;66.32;34.80;;;4.60;99.90;;;;;;5009576;28;20049;-77
2022/12/10 00:11:20;;;;;;;69.03;33.53;;;4.50;99.90;;;;;;5008848;28;20042;-77
2022/12/10 00:13:48;;;;;;;64.15;33.33;;;4.50;99.90;;;;;;5010249;28;20045;-77
2022/12/10 00:16:17;;;;;;;66.90;33.17;;;4.50;99.90;;;;;;5011640;28;20494;-77
2022/12/10 00:18:45;;;;;;;66.72;33.50;;;4.50;99.90;;;;;;5011118;28;20584;-77
2022/12/10 00:21:13;;;;;;;71.80;34.85;;;4.40;99.90;;;;;;5010400;28;20084;-77
2022/12/10 00:23:41;;;;;;;65.63;33.15;;;4.40;99.90;;;;;;5010566;28;20052;-77
2022/12/10 00:26:10;;;;;;;67.25;34.05;;;4.40;99.90;;;;;;4997669;28;20038;-77
2022/12/10 00:28:39;;;;;;;70.50;35.22;;;4.40;99.90;;;;;;4998922;28;20399;-77
2022/12/10 00:31:09;;;;;;;64.10;32.58;;;4.40;99.90;;;;;;5007640;28;20049;-77
2022/12/10 00:33:37;;;;;;;65.70;32.30;;;4.40;99.90;;;;;;5007821;28;20623;-77
2022/12/10 00:36:05;;;;;;;69.20;33.47;;;4.40;99.90;;;;;;4999301;28;20061;-76
2022/12/10 00:38:32;;;;;;;72.43;33.85;;;4.30;99.90;;;;;;5003470;28;20060;-77
2022/12/10 00:40:59;;;;;;;69.38;33.45;;;4.30;99.90;;;;;;5008900;28;20060;-77
2022/12/10 00:43:26;;;;;;;65.95;32.60;;;4.30;99.90;;;;;;4993892;28;20124;-77
2022/12/10 00:45:55;;;;;;;67.43;32.75;;;4.20;99.90;;;;;;5008365;28;20053;-79
2022/12/10 00:48:22;;;;;;;64.55;32.50;;;4.20;99.90;;;;;;5004158;28;20380;-79
2022/12/10 00:50:56;;;;;;;69.22;33.40;;;4.20;99.90;;;;;;4993834;28;20045;-80
2022/12/10 00:53:24;;;;;;;64.88;31.90;;;4.20;99.90;;;;;;5004876;28;20324;-79
2022/12/10 00:55:51;;;;;;;67.43;33.05;;;4.10;99.90;;;;;;5002730;28;20050;-81
2022/12/10 01:02:07;;;;;;;65.63;31.85;;;4.10;99.90;;;;;;5002354;28;20084;-81
2022/12/10 01:04:34;;;;;;;68.57;32.92;;;4.10;99.90;;;;;;5004388;28;20041;-81
2022/12/10 01:07:01;;;;;;;65.90;32.65;;;4.00;99.90;;;;;;4988885;28;20050;-81
2022/12/10 01:09:30;;;;;;;68.32;33.33;;;4.00;99.90;;;;;;5001990;28;20073;-81
2022/12/10 01:11:58;;;;;;;70.40;32.42;;;4.00;99.90;;;;;;5000546;28;20045;-81
2022/12/10 01:14:28;;;;;;;68.88;33.05;;;4.00;99.90;;;;;;4995859;28;20137;-79
2022/12/10 01:16:56;;;;;;;63.28;31.75;;;4.00;99.90;;;;;;4990835;28;20053;-80
2022/12/10 01:19:24;;;;;;;70.28;33.40;;;4.00;99.90;;;;;;4997363;28;20214;-80
2022/12/10 01:21:51;;;;;;;66.97;32.08;;;4.00;99.90;;;;;;4997587;28;20061;-80
2022/12/10 01:24:19;;;;;;;65.68;32.88;;;3.90;99.90;;;;;;5007347;28;20041;-80
2022/12/10 01:26:46;;;;;;;64.88;32.17;;;3.90;99.90;;;;;;5001658;28;20065;-79
2022/12/10 01:29:13;;;;;;;63.80;31.15;;;3.90;99.90;;;;;;5000289;28;20078;-80
2022/12/10 01:31:41;;;;;;;67.50;32.22;;;3.90;99.90;;;;;;5004346;28;20065;-80
2022/12/10 01:34:12;;;;;;;66.35;32.60;;;3.90;99.90;;;;;;5002457;28;20042;-79
2022/12/10 01:36:42;;;;;;;67.07;32.35;;;3.90;99.90;;;;;;5003706;28;20069;-80
2022/12/10 01:39:13;;;;;;;66.53;31.75;;;3.90;99.90;;;;;;5000440;28;20058;-79
2022/12/10 01:41:42;;;;;;;73.00;33.50;;;3.90;99.90;;;;;;4994734;28;20431;-79
2022/12/10 01:44:39;;;;;;;65.38;31.45;;;3.90;99.90;;;;;;4997753;28;20125;-80
2022/12/10 01:47:06;;;;;;;65.30;32.00;;;3.80;99.90;;;;;;4982826;28;20100;-79
2022/12/10 01:49:36;;;;;;;67.43;30.98;;;3.80;99.90;;;;;;5002565;28;20042;-79
2022/12/10 01:52:06;;;;;;;69.18;33.17;;;3.80;99.90;;;;;;4999111;28;20400;-79
2022/12/10 01:54:36;;;;;;;60.90;31.17;;;3.80;99.90;;;;;;4997449;28;20069;-79
2022/12/10 01:57:05;;;;;;;69.73;32.13;;;3.80;99.90;;;;;;5005054;28;20054;-80
2022/12/10 01:59:33;;;;;;;66.25;31.27;;;3.70;99.90;;;;;;4996803;28;20050;-79
2022/12/10 02:02:05;;;;;;;64.70;31.10;;;3.70;99.90;;;;;;5004367;28;20042;-80
2022/12/10 02:04:37;;;;;;;63.42;30.65;;;3.70;99.90;;;;;;5001062;28;20050;-80
2022/12/10 02:07:10;;;;;;;64.82;30.98;;;3.70;99.90;;;;;;5000534;28;20410;-79
2022/12/10 02:09:44;;;;;;;65.03;31.73;;;3.80;99.90;;;;;;4999740;28;20517;-80
2022/12/10 02:12:13;;;;;;;63.53;31.25;;;3.80;99.90;;;;;;5001013;28;20057;-79
2022/12/10 02:14:47;;;;;;;69.50;31.80;;;3.70;99.90;;;;;;5043127;23;20049;-79
2022/12/10 02:17:19;;;;;;;61.50;30.58;;;3.80;99.90;;;;;;5045763;28;20543;-79
2022/12/10 02:20:04;;;;;;;67.50;32.22;;;3.80;99.90;;;;;;5042659;28;20044;-79
2022/12/10 02:22:35;;;;;;;70.47;31.80;;;3.70;99.90;;;;;;5048357;28;20049;-79
2022/12/10 02:25:03;;;;;;;61.85;31.20;;;3.70;99.90;;;;;;5042159;28;20045;-79
2022/12/10 02:27:38;;;;;;;64.00;30.58;;;3.70;99.90;;;;;;5045099;28;20056;-79
2022/12/10 02:30:08;;;;;;;65.97;32.17;;;3.70;99.90;;;;;;5039307;28;20128;-79
2022/12/10 02:32:40;;;;;;;66.07;31.20;;;3.70;99.90;;;;;;5042089;28;20135;-79
2022/12/10 02:35:11;;;;;;;65.68;32.53;;;3.70;99.90;;;;;;5034710;28;20052;-79
2022/12/10 02:37:40;;;;;;;66.60;29.50;;;3.70;99.90;;;;;;5039827;28;20053;-79
2022/12/10 02:40:10;;;;;;;57.72;29.08;;;3.70;99.90;;;;;;5038603;28;20041;-79
2022/12/10 02:42:43;;;;;;;61.80;30.00;;;3.70;99.90;;;;;;5030699;28;20989;-79
2022/12/10 02:45:12;;;;;;;58.05;29.17;;;3.70;99.90;;;;;;5046406;28;20033;-79
2022/12/10 02:47:41;;;;;;;61.15;29.35;;;3.70;99.90;;;;;;5041284;28;20049;-79
2022/12/10 02:50:10;;;;;;;67.78;31.67;;;3.90;99.90;;;;;;5044463;28;20524;-79
2022/12/10 02:52:37;;;;;;;66.28;30.40;;;3.70;99.90;;;;;;5046170;28;20575;-79
2022/12/10 02:55:04;;;;;;;67.80;31.38;;;3.70;99.90;;;;;;5043410;28;20041;-79
2022/12/10 02:57:37;;;;;;;64.50;30.45;;;3.70;99.90;;;;;;5037599;28;20139;-79
2022/12/10 03:00:16;;;;;;;62.83;29.83;;;3.70;99.90;;;;;;5039447;28;20123;-80
2022/12/10 03:03:11;;;;;;;65.90;31.38;;;3.70;99.90;;;;;;5044160;28;20045;-79
2022/12/10 03:05:43;;;;;;;65.13;29.85;;;3.70;99.90;;;;;;5041100;28;20071;-79
2022/12/10 03:08:14;;;;;;;67.00;30.27;;;3.70;99.90;;;;;;5045014;28;20045;-79
2022/12/10 03:10:46;;;;;;;71.90;30.98;;;3.70;99.90;;;;;;5051542;28;20140;-79
2022/12/10 03:13:16;;;;;;;65.70;30.35;;;3.70;99.90;;;;;;5044373;28;20110;-79
2022/12/10 03:15:45;;;;;;;62.75;29.38;;;3.70;99.90;;;;;;5046488;28;20151;-79
2022/12/10 03:18:13;;;;;;;67.10;31.02;;;3.70;99.90;;;;;;5051019;28;20525;-79
2022/12/10 03:20:43;;;;;;;65.13;32.22;;;3.70;99.90;;;;;;5049941;28;20049;-79
2022/12/10 03:23:13;;;;;;;65.83;30.27;;;3.70;99.90;;;;;;5034961;28;20103;-79
2022/12/10 03:25:40;;;;;;;64.53;30.35;;;3.70;99.90;;;;;;5044999;28;20300;-79
2022/12/10 03:28:08;;;;;;;62.60;30.05;;;3.70;99.90;;;;;;5051436;28;20059;-79
2022/12/10 03:30:36;;;;;;;60.65;29.60;;;3.80;99.90;;;;;;5043246;28;20052;-79
2022/12/10 03:33:05;;;;;;;66.60;31.08;;;3.80;99.90;;;;;;5031925;28;20050;-79
2022/12/10 03:35:32;;;;;;;68.22;30.95;;;3.70;99.90;;;;;;5039149;28;20037;-79
2022/12/10 03:37:59;;;;;;;66.38;29.95;;;3.70;99.90;;;;;;5045141;28;20045;-79
2022/12/10 03:40:27;;;;;;;65.45;29.60;;;3.80;99.90;;;;;;5043074;28;20045;-79
2022/12/10 03:42:53;;;;;;;64.07;29.83;;;3.80;99.90;;;;;;5041618;28;20048;-79
2022/12/10 03:45:20;;;;;;;65.50;30.58;;;3.80;99.90;;;;;;5033967;28;20044;-79
2022/12/10 03:47:49;;;;;;;63.33;29.63;;;3.90;99.90;;;;;;5031737;28;20068;-79
2022/12/10 03:50:17;;;;;;;64.50;31.20;;;3.80;99.90;;;;;;5041057;28;20110;-79
2022/12/10 03:52:44;;;;;;;69.63;32.42;;;3.90;99.90;;;;;;5049461;28;20049;-79
2022/12/10 03:55:11;;;;;;;64.60;30.25;;;3.90;99.90;;;;;;5040040;28;20030;-79
2022/12/10 03:57:38;;;;;;;67.72;31.15;;;3.90;99.90;;;;;;5042869;28;20053;-79
2022/12/10 04:00:06;;;;;;;60.53;28.65;;;3.90;99.90;;;;;;5051085;28;20041;-79
2022/12/10 04:02:39;;;;;;;63.08;29.20;;;3.90;99.90;;;;;;5043221;28;20434;-79
2022/12/10 04:05:07;;;;;;;60.38;29.83;;;3.90;99.90;;;;;;5050921;28;20409;-79
2022/12/10 04:07:35;;;;;;;69.05;30.55;;;3.90;99.90;;;;;;5048797;28;20600;-79
2022/12/10 04:10:03;;;;;;;64.88;29.77;;;3.90;99.90;;;;;;5045748;28;20045;-79
2022/12/10 04:12:29;;;;;;;68.15;31.25;;;3.90;99.90;;;;;;5031594;28;20056;-79
2022/12/10 04:17:41;;;;;;;64.97;30.75;;;4.10;99.90;;;;;;5051055;28;20049;-79
2022/12/10 04:26:51;;;;;;;66.18;30.90;;;3.90;99.90;;;;;;5044219;28;20436;-79
2022/12/10 04:28:26;;;;;;;66.13;30.73;;;4.00;99.90;;;;;;5045407;28;20041;-79
2022/12/10 04:30:53;;;;;;;67.45;31.35;;;4.00;99.90;;;;;;5050060;28;20049;-79
2022/12/10 04:33:20;;;;;;;61.92;28.77;;;4.00;99.90;;;;;;5041957;28;20099;-79
2022/12/10 04:35:47;;;;;;;62.35;29.27;;;4.00;99.90;;;;;;5050990;28;20045;-79
2022/12/10 04:38:15;;;;;;;61.67;30.17;;;4.00;99.90;;;;;;5050422;28;20052;-79
2022/12/10 04:40:42;;;;;;;61.53;28.67;;;3.90;99.90;;;;;;5049951;28;20055;-79
2022/12/10 04:43:09;;;;;;;63.78;30.33;;;3.90;99.90;;;;;;5046010;28;20527;-79
2022/12/10 04:45:36;;;;;;;64.60;29.65;;;3.90;99.90;;;;;;5042635;28;20040;-79
2022/12/10 04:48:03;;;;;;;65.15;30.48;;;3.90;99.90;;;;;;5030902;28;20045;-79
2022/12/10 04:50:30;;;;;;;61.75;28.48;;;3.90;99.90;;;;;;5041818;28;20065;-79
2022/12/10 04:52:57;;;;;;;59.97;29.60;;;3.90;99.90;;;;;;5041520;28;20053;-79
2022/12/10 04:55:25;;;;;;;60.10;28.98;;;3.90;99.90;;;;;;5035810;28;20049;-79
2022/12/10 04:57:52;;;;;;;61.50;27.23;;;3.90;99.90;;;;;;5040821;28;20069;-79
2022/12/10 05:00:29;;;;;;;59.85;28.10;;;3.90;99.90;;;;;;5047631;28;20120;-79
2022/12/10 05:02:56;;;;;;;64.30;29.23;;;3.90;99.90;;;;;;5039487;28;20041;-79
2022/12/10 05:05:23;;;;;;;70.32;31.15;;;3.90;99.90;;;;;;5044488;28;20037;-79
2022/12/10 05:07:50;;;;;;;65.32;30.55;;;3.90;99.90;;;;;;5042071;28;20413;-79
2022/12/10 05:10:17;;;;;;;69.95;31.70;;;3.90;99.90;;;;;;5040245;28;20416;-79
2022/12/10 05:12:45;;;;;;;61.53;29.73;;;3.90;99.90;;;;;;5050414;28;20055;-79
2022/12/10 05:15:12;;;;;;;63.13;28.90;;;3.90;99.90;;;;;;5049194;28;20029;-79
2022/12/10 05:17:39;;;;;;;61.25;28.25;;;3.80;99.90;;;;;;5034271;28;20539;-79
2022/12/10 05:20:07;;;;;;;62.72;28.85;;;3.80;99.90;;;;;;5042043;28;20047;-79
2022/12/10 05:25:18;;;;;;;64.55;28.27;;;3.70;99.90;;;;;;5036407;28;20028;-79
2022/12/10 05:27:47;;;;;;;66.95;29.50;;;3.70;99.90;;;;;;5048432;28;20045;-79
2022/12/10 05:30:13;;;;;;;58.53;27.05;;;3.70;99.90;;;;;;5041994;28;20047;-79
2022/12/10 05:32:41;;;;;;;61.47;29.17;;;3.70;99.90;;;;;;5050095;28;20098;-79
2022/12/10 05:35:08;;;;;;;64.85;29.83;;;3.60;99.90;;;;;;5047790;28;20379;-79
2022/12/10 05:37:35;;;;;;;62.70;29.35;;;3.60;99.90;;;;;;5048449;28;20051;-79
2022/12/10 05:40:02;;;;;;;59.10;27.77;;;3.60;99.90;;;;;;5041269;28;20033;-79
2022/12/10 05:42:29;;;;;;;64.18;29.15;;;3.60;99.90;;;;;;5049626;28;20075;-79
2022/12/10 05:44:57;;;;;;;61.15;27.77;;;3.50;99.90;;;;;;5048433;28;20050;-79
2022/12/10 05:47:25;;;;;;;60.20;28.13;;;3.50;99.90;;;;;;5038456;28;20540;-79
2022/12/10 05:49:52;;;;;;;58.08;28.55;;;3.50;99.90;;;;;;5038622;28;20412;-79
2022/12/10 05:52:19;;;;;;;61.17;27.90;;;3.50;99.90;;;;;;5042925;28;20080;-79
2022/12/10 05:54:46;;;;;;;61.28;28.45;;;3.40;99.90;;;;;;5046532;28;20047;-79
2022/12/10 05:57:13;;;;;;;59.90;28.08;;;3.40;99.90;;;;;;5048419;28;20041;-79
2022/12/10 05:59:40;;;;;;;58.67;27.55;;;3.30;99.90;;;;;;5048917;28;20052;-79
2022/12/10 06:02:08;;;;;;;61.47;28.45;;;3.30;99.90;;;;;;5046744;28;20052;-79
2022/12/10 06:04:35;;;;;;;64.10;27.73;;;3.30;99.90;;;;;;5032881;28;20045;-78
2022/12/10 06:07:02;;;;;;;57.10;26.83;;;3.30;99.90;;;;;;5039715;28;20042;-78
2022/12/10 06:09:29;;;;;;;61.00;27.98;;;3.20;99.90;;;;;;5029859;28;20079;-78
2022/12/10 06:11:56;;;;;;;60.83;27.05;;;3.30;99.90;;;;;;5029072;28;20041;-78
2022/12/10 06:14:23;;;;;;;60.67;28.00;;;3.20;99.90;;;;;;5034463;28;20413;-78
2022/12/10 06:16:49;;;;;;;59.80;28.77;;;3.20;99.90;;;;;;5046327;28;20068;-78
2022/12/10 06:19:18;;;;;;;64.88;29.48;;;3.20;99.90;;;;;;5042956;28;20045;-78
2022/12/10 06:21:44;;;;;;;66.95;30.50;;;3.20;99.90;;;;;;5049294;28;20053;-78
2022/12/10 06:24:11;;;;;;;64.57;29.13;;;3.10;99.90;;;;;;5042403;28;20521;-79
2022/12/10 06:26:38;;;;;;;61.33;28.83;;;3.10;99.90;;;;;;5043774;28;20044;-78
2022/12/10 06:29:05;;;;;;;61.08;27.58;;;3.10;99.90;;;;;;5048591;28;20083;-79
2022/12/10 06:31:32;;;;;;;63.90;28.55;;;3.10;99.90;;;;;;5048089;28;20048;-78
2022/12/10 06:33:59;;;;;;;61.78;28.70;;;3.10;99.90;;;;;;5039341;28;20049;-78
2022/12/10 06:36:27;;;;;;;58.70;27.83;;;3.10;99.90;;;;;;5033872;28;20197;-78
2022/12/10 06:38:54;;;;;;;60.60;27.67;;;3.10;99.90;;;;;;5046552;28;20057;-78
2022/12/10 06:41:21;;;;;;;58.90;28.40;;;3.00;99.90;;;;;;5047679;28;20052;-78
2022/12/10 06:43:48;;;;;;;56.38;27.45;;;3.00;99.90;;;;;;5038579;28;20033;-78
2022/12/10 06:46:17;;;;;;;60.03;28.02;;;2.90;99.90;;;;;;5046104;28;20041;-78
2022/12/10 06:48:44;;;;;;;58.67;26.73;;;3.00;99.90;;;;;;5045808;28;20041;-79
2022/12/10 06:51:12;;;;;;;59.65;26.95;;;3.00;99.90;;;;;;5048215;28;20041;-78
2022/12/10 06:53:41;;;;;;;65.68;29.40;;;3.00;99.90;;;;;;5044578;28;20489;-78
2022/12/10 06:56:10;;;;;;;60.78;28.88;;;3.00;99.90;;;;;;5045807;28;20508;-78
2022/12/10 06:58:37;;;;;;;62.95;29.58;;;2.90;99.90;;;;;;5034223;28;20091;-78
2022/12/10 07:01:05;;;;;;;69.78;30.33;;;2.90;99.90;;;;;;5048432;28;20076;-78
2022/12/10 07:03:32;;;;;;;69.75;31.15;;;2.90;99.90;;;;;;5039511;28;20424;-78
2022/12/10 07:05:59;;;;;;;69.03;30.17;;;3.00;99.90;;;;;;5044356;28;20494;-78
2022/12/10 07:08:26;;;;;;;67.78;30.77;;;3.00;99.90;;;;;;5038735;28;20068;-78
2022/12/10 07:10:54;;;;;;;73.60;31.83;;;3.00;99.90;;;;;;5046113;28;20045;-78
2022/12/10 07:13:21;;;;;;;71.15;31.50;;;3.00;99.90;;;;;;5045245;28;20509;-78
2022/12/10 07:15:48;;;;;;;77.60;32.97;;;3.00;99.90;;;;;;5047779;28;20401;-78
2022/12/10 07:18:15;;;;;;;74.82;33.17;;;3.00;99.90;;;;;;5046333;28;20578;-79
2022/12/10 07:20:42;;;;;;;81.53;34.25;;;3.10;99.90;;;;;;5039395;28;20053;-79
2022/12/10 07:23:09;;;;;;;79.43;33.33;;;3.10;99.90;;;;;;5046652;28;20489;-78
2022/12/10 07:25:36;;;;;;;82.75;33.88;;;3.10;99.90;;;;;;5045813;28;20150;-76
2022/12/10 07:28:05;;;;;;;79.95;34.88;;;3.20;99.90;;;;;;5035880;28;20049;-77
2022/12/10 07:30:33;;;;;;;81.20;34.25;;;3.20;99.90;;;;;;5041967;28;20045;-76
2022/12/10 07:33:00;;;;;;;81.40;34.85;;;3.20;99.90;;;;;;5046862;28;20084;-77
2022/12/10 07:35:27;;;;;;;84.75;34.28;;;3.20;99.90;;;;;;5047143;28;20060;-77
2022/12/10 07:37:53;;;;;;;84.68;34.72;;;3.20;99.90;;;;;;5043112;28;20041;-77
2022/12/10 07:40:20;;;;;;;84.60;35.03;;;3.30;99.90;;;;;;5034379;28;20064;-76
2022/12/10 07:42:47;;;;;;;87.65;35.97;;;3.30;99.90;;;;;;5036477;28;20041;-76
2022/12/10 07:45:15;;;;;;;83.90;36.30;;;3.30;99.90;;;;;;5036380;28;20026;-77
2022/12/10 07:47:42;;;;;;;85.00;36.50;;;3.40;99.90;;;;;;5043989;28;20125;-77
2022/12/10 07:50:09;;;;;;;87.75;36.80;;;3.40;99.90;;;;;;5049163;28;20037;-77
2022/12/10 07:52:36;;;;;;;96.63;37.95;;;3.40;99.90;;;;;;5040856;28;20048;-77
2022/12/10 07:55:03;;;;;;;91.07;38.45;;;3.40;99.90;;;;;;5045411;28;20045;-77
2022/12/10 07:57:30;;;;;;;89.82;36.50;;;3.40;99.90;;;;;;5046461;28;20100;-77
2022/12/10 08:00:05;;;;;;;88.90;37.92;;;3.40;99.90;;;;;;5043681;28;20044;-76
2022/12/10 08:02:39;;;;;;;;;;;3.50;99.90;;;;;;5048030;28;20049;-77
2022/12/10 08:05:07;;;;;;;91.00;36.35;;;3.50;99.90;;;;;;5047034;28;19921;-77
2022/12/10 08:07:34;;;;;;;86.90;35.72;;;3.50;99.90;;;;;;5047982;28;20444;-77
2022/12/10 08:10:01;;;;;;;89.40;36.10;;;3.50;99.90;;;;;;5051490;28;20053;-76
2022/12/10 08:12:27;;;;;;;86.95;35.58;;;3.50;99.90;;;;;;5051740;28;20090;-76
2022/12/10 08:14:54;;;;;;;90.60;37.65;;;3.50;99.90;;;;;;5082567;23;20060;-81
2022/12/10 08:17:21;;;;;;;87.75;36.65;;;3.60;99.90;;;;;;5040521;28;20119;-81
2022/12/10 08:19:50;;;;;;;88.80;38.28;;;3.50;99.90;;;;;;5041634;28;20045;-85
2022/12/10 08:22:17;;;;;;;94.80;37.22;;;3.60;99.90;;;;;;5038655;28;20536;-85
2022/12/10 08:24:44;;;;;;;94.32;39.15;;;3.60;99.90;;;;;;5040321;28;20045;-84
2022/12/10 08:27:11;;;;;;;98.40;39.63;;;3.60;99.90;;;;;;5042077;28;20132;-85
2022/12/10 08:29:38;;;;;;;95.45;38.92;;;3.60;99.90;;;;;;5030548;28;20041;-84
2022/12/10 08:32:04;;;;;;;97.20;40.15;;;3.70;99.90;;;;;;5043273;28;20041;-85
2022/12/10 08:34:31;;;;;;;94.32;40.00;;;3.60;99.90;;;;;;5034949;28;20072;-85
2022/12/10 08:37:00;;;;;;;93.40;38.85;;;3.60;99.90;;;;;;5039445;28;20048;-85
2022/12/10 08:39:27;;;;;;;95.45;38.92;;;3.70;99.90;;;;;;5037563;28;20086;-85
2022/12/10 08:41:53;;;;;;;103.25;39.22;;;3.70;99.90;;;;;;5050828;28;20073;-85
2022/12/10 08:44:20;;;;;;;95.15;40.45;;;3.70;99.90;;;;;;5050073;28;20055;-85
2022/12/10 08:46:47;;;;;;;98.50;41.13;;;3.70;99.90;;;;;;5049111;28;20048;-84
2022/12/10 08:49:14;;;;;;;84.35;37.03;;;3.60;99.90;;;;;;5036289;28;20095;-85
2022/12/10 08:51:42;;;;;;;96.78;40.85;;;3.60;99.90;;;;;;5044060;28;20041;-85
2022/12/10 08:54:10;;;;;;;93.30;39.85;;;3.60;99.90;;;;;;5042593;28;20059;-84
2022/12/10 08:56:39;;;;;;;93.88;40.63;;;3.70;99.90;;;;;;5050783;28;20037;-84
2022/12/10 08:59:06;;;;;;;94.75;39.72;;;3.70;99.90;;;;;;5050837;28;20586;-85
2022/12/10 09:01:33;;;;;;;93.13;40.40;;;3.70;99.90;;;;;;5050898;28;20041;-85
2022/12/10 09:04:00;;;;;;;91.80;41.13;;;3.70;99.90;;;;;;5040138;28;20052;-85
2022/12/10 09:06:27;;;;;;;95.75;41.75;;;3.70;99.90;;;;;;5047660;28;20052;-84
2022/12/10 09:08:54;;;;;;;96.55;40.10;;;3.70;99.90;;;;;;5041219;28;20047;-81
2022/12/10 09:11:25;;;;;;;93.47;40.90;;;3.70;99.90;;;;;;5050640;28;20052;-84
2022/12/10 09:13:52;;;;;;;104.45;41.75;;;3.80;99.90;;;;;;5049495;28;20056;-86
2022/12/10 09:16:19;;;;;;;102.43;42.15;;;3.70;99.90;;;;;;5050076;28;20374;-85
2022/12/10 09:18:46;;;;;;;102.07;44.25;;;3.80;99.90;;;;;;5050571;28;20053;-85
2022/12/10 09:21:16;;;;;;;104.68;42.78;;;3.70;99.90;;;;;;5047780;28;20048;-85
2022/12/10 09:23:44;;;;;;;102.13;43.63;;;3.80;99.90;;;;;;5043885;28;20053;-88
2022/12/10 09:26:12;;;;;;;103.47;41.08;;;3.80;99.90;;;;;;5046018;28;20037;-89
2022/12/10 09:28:41;;;;;;;101.75;43.70;;;3.80;99.90;;;;;;5031565;28;20053;-89
2022/12/10 09:31:08;;;;;;;101.00;43.15;;;3.80;99.90;;;;;;5048519;28;20562;-87
2022/12/10 09:33:36;;;;;;;108.93;43.60;;;3.80;99.90;;;;;;5048168;28;20037;-88
2022/12/10 09:36:05;;;;;;;103.15;44.38;;;3.90;99.90;;;;;;5043024;28;20481;-88
2022/12/10 09:38:32;;;;;;;108.70;45.20;;;3.90;99.90;;;;;;5044891;28;20045;-85
2022/12/10 09:41:02;;;;;;;104.10;43.35;;;3.90;99.90;;;;;;5049179;28;20051;-85
2022/12/10 09:43:41;;;;;;;109.32;44.10;;;3.90;99.90;;;;;;5049369;28;20128;-87
2022/12/10 09:46:11;;;;;;;103.93;42.88;;;3.90;99.90;;;;;;5043560;28;20037;-84
2022/12/10 09:48:50;;;;;;;104.05;45.47;;;3.90;99.90;;;;;;5048406;28;20081;-91
2022/12/10 09:51:23;;;;;;;109.13;44.58;;;3.90;99.90;;;;;;5034181;28;20042;-88
2022/12/10 09:53:57;;;;;;;103.13;43.28;;;3.90;99.90;;;;;;5031318;28;20047;-85
2022/12/10 09:56:27;;;;;;;103.68;43.25;;;3.90;99.90;;;;;;5049301;28;20041;-83
2022/12/10 09:58:56;;;;;;;100.82;41.75;;;3.90;99.90;;;;;;5048887;28;20523;-83
2022/12/10 10:01:26;;;;;;;108.63;44.67;;;3.90;99.90;;;;;;5043472;28;20060;-83
2022/12/10 10:03:54;;;;;;;104.40;41.60;;;4.00;99.90;;;;;;5044459;28;20045;-83
2022/12/10 10:06:22;;;;;;;97.00;40.50;;;4.00;99.90;;;;;;5048747;28;20037;-84
2022/12/10 10:08:53;;;;;;;94.82;40.15;;;4.00;99.90;;;;;;5038786;28;20041;-85
2022/12/10 10:11:23;;;;;;;96.18;40.72;;;4.00;99.90;;;;;;5048000;28;20134;-79
2022/12/10 10:13:53;;;;;;;98.00;39.95;;;4.00;99.90;;;;;;5045071;28;20049;-82
2022/12/10 10:16:25;;;;;;;103.18;44.10;;;4.00;99.90;;;;;;5045162;28;20041;-82
2022/12/10 10:18:56;;;;;;;94.85;41.83;;;4.00;99.90;;;;;;5045456;28;20052;-83
2022/12/10 10:21:23;;;;;;;;;;;4.00;99.90;;;;;;5047343;28;20527;-85
2022/12/10 10:23:59;;;;;;;95.50;38.33;;;4.10;99.90;;;;;;5042212;28;20019;-84
2022/12/10 10:26:29;;;;;;;87.00;37.78;;;4.00;99.90;;;;;;5041576;28;20053;-84
2022/12/10 10:29:00;;;;;;;93.13;38.78;;;4.00;99.90;;;;;;5043342;28;20056;-85
2022/12/10 10:31:29;;;;;;;92.90;38.40;;;4.00;99.90;;;;;;5045717;28;20044;-85
2022/12/10 10:33:58;;;;;;;91.40;39.85;;;4.00;99.90;;;;;;5049146;23;20061;-84
2022/12/10 10:36:27;;;;;;;88.88;38.60;;;4.00;99.90;;;;;;5017565;28;20041;-81
2022/12/10 10:38:54;;;;;;;88.05;38.00;;;4.00;99.90;;;;;;5020507;28;20049;-82
2022/12/10 10:41:21;;;;;;;87.25;36.42;;;4.00;99.90;;;;;;5019767;28;20041;-83
2022/12/10 10:43:54;;;;;;;92.88;38.17;;;4.00;99.90;;;;;;5022692;28;20038;-83
2022/12/10 10:46:23;;;;;;;82.55;35.65;;;4.10;99.90;;;;;;5008526;28;20065;-84
2022/12/10 10:48:52;;;;;;;80.65;35.13;;;4.00;99.90;;;;;;5007097;28;20501;-84
2022/12/10 10:51:23;;;;;;;90.72;37.28;;;4.00;99.90;;;;;;5004594;28;20069;-82
2022/12/10 10:53:52;;;;;;;82.82;35.45;;;4.00;99.90;;;;;;5008276;28;20037;-82
2022/12/10 10:56:21;;;;;;;81.88;34.35;;;4.00;99.90;;;;;;5003283;28;20077;-81
2022/12/10 10:58:55;;;;;;;82.57;35.65;;;4.00;99.90;;;;;;5006662;28;20060;-82
2022/12/10 11:01:22;;;;;;;85.55;35.50;;;4.00;99.90;;;;;;5005479;28;20048;-84
2022/12/10 11:03:55;;;;;;;82.25;34.35;;;4.00;99.90;;;;;;5006543;28;20052;-84
2022/12/10 11:06:22;;;;;;;81.53;35.15;;;4.00;99.90;;;;;;4991088;28;20048;-82
2022/12/10 11:08:49;;;;;;;74.90;33.63;;;4.00;99.90;;;;;;5007318;28;20518;-83
2022/12/10 11:11:20;;;;;;;81.22;34.15;;;4.00;99.90;;;;;;5005276;28;20036;-83
2022/12/10 11:13:48;;;;;;;78.47;34.88;;;4.00;99.90;;;;;;5002761;28;20050;-83
2022/12/10 11:16:19;;;;;;;82.45;35.45;;;4.00;99.90;;;;;;4994088;28;20414;-84
2022/12/10 11:18:57;;;;;;;84.90;34.53;;;4.00;99.90;;;;;;4993413;28;20065;-83
2022/12/10 11:21:25;;;;;;;84.78;34.85;;;4.00;99.90;;;;;;5006255;28;20046;-82
2022/12/10 11:23:54;;;;;;;76.55;34.05;;;4.00;99.90;;;;;;4986693;28;20103;-83
2022/12/10 11:26:45;;;;;;;77.30;34.15;;;4.00;99.90;;;;;;5010258;28;20046;-83
2022/12/10 11:29:22;;;;;;;76.45;33.15;;;4.00;99.90;;;;;;5007566;28;20050;-83
2022/12/10 11:31:58;;;;;;;82.75;35.08;;;3.90;99.90;;;;;;5007699;28;20049;-89
2022/12/10 11:34:37;;;;;;;83.18;35.00;;;3.90;99.90;;;;;;5006155;28;20038;-89
2022/12/10 11:37:09;;;;;;;87.28;36.22;;;4.00;99.90;;;;;;5008815;28;20084;-88
2022/12/10 11:39:52;;;;;;;82.78;35.33;;;4.00;99.90;;;;;;5009533;28;20052;-86
2022/12/10 11:42:25;;;;;;;87.82;36.13;;;4.00;99.90;;;;;;5010661;28;20438;-85
2022/12/10 11:44:58;;;;;;;87.40;36.42;;;4.00;99.90;;;;;;5007603;28;20061;-88
2022/12/10 11:47:41;;;;;;;78.85;34.70;;;4.00;99.90;;;;;;5005722;28;20108;-88
2022/12/10 11:50:16;;;;;;;82.07;33.97;;;4.00;99.90;;;;;;5010645;28;20136;-88
2022/12/10 11:52:52;;;;;;;88.93;34.63;;;4.00;99.90;;;;;;5010145;28;20056;-89
2022/12/10 11:55:28;;;;;;;87.82;37.15;;;3.90;99.90;;;;;;5010093;28;20042;-87
2022/12/10 11:58:07;;;;;;;83.82;35.08;;;4.00;99.90;;;;;;4998180;28;20044;-88
2022/12/10 12:00:42;;;;;;;81.95;34.42;;;4.00;99.90;;;;;;5010792;28;20584;-88
2022/12/10 12:03:30;;;;;;;82.82;34.40;;;4.00;99.90;;;;;;5007880;28;20474;-87
2022/12/10 12:06:12;;;;;;;76.50;34.80;;;4.00;99.90;;;;;;5006833;28;20446;-89
2022/12/10 12:08:48;;;;;;;77.25;34.42;;;4.00;99.90;;;;;;5010314;28;20046;-88
2022/12/10 12:11:26;;;;;;;86.20;35.65;;;4.00;99.90;;;;;;5005911;28;20056;-89
2022/12/10 12:13:58;;;;;;;88.95;36.28;;;4.00;99.90;;;;;;4997810;28;20053;-89
2022/12/10 12:16:31;;;;;;;95.03;39.70;;;4.00;99.90;;;;;;4994425;28;20473;-89
2022/12/10 12:19:00;;;;;;;92.75;40.10;;;4.00;99.90;;;;;;5003958;28;20041;-89
2022/12/10 12:21:29;;;;;;;83.88;34.38;;;4.00;99.90;;;;;;5008171;28;20049;-90
2022/12/10 12:23:59;;;;;;;78.75;34.13;;;4.00;99.90;;;;;;5010665;28;20041;-87
2022/12/10 12:26:29;;;;;;;80.53;34.65;;;4.00;99.90;;;;;;5003860;28;20534;-89
2022/12/10 12:29:02;;;;;;;88.03;38.07;;;4.00;99.90;;;;;;5007076;28;20767;-86
2022/12/10 12:31:33;;;;;;;85.15;36.72;;;4.00;99.90;;;;;;5009638;28;20396;-87
2022/12/10 12:34:02;;;;;;;80.75;35.67;;;4.00;99.90;;;;;;5009786;28;20053;-86
2022/12/10 12:36:33;;;;;;;75.00;34.50;;;4.00;99.90;;;;;;4987755;28;20479;-86
2022/12/10 12:39:05;;;;;;;90.55;37.45;;;4.00;99.90;;;;;;5010635;28;20049;-87
2022/12/10 12:41:35;;;;;;;88.68;37.78;;;4.00;99.90;;;;;;5008313;28;20049;-87
2022/12/10 12:44:10;;;;;;;89.13;38.13;;;4.00;99.90;;;;;;4990844;28;20042;-87
2022/12/10 12:46:40;;;;;;;81.93;34.78;;;4.00;99.90;;;;;;5007926;28;20042;-88
2022/12/10 12:49:12;;;;;;;78.68;34.28;;;4.00;99.90;;;;;;5007434;28;20500;-86
2022/12/10 12:51:43;;;;;;;68.65;32.55;;;4.00;99.90;;;;;;5007241;28;20135;-88
2022/12/10 12:54:12;;;;;;;79.68;33.10;;;4.00;99.90;;;;;;4991842;28;20045;-87
2022/12/10 12:56:55;;;;;;;83.10;35.75;;;4.00;99.90;;;;;;5005942;28;20068;-86
2022/12/10 12:59:32;;;;;;;76.63;33.83;;;4.00;99.90;;;;;;5008536;28;20117;-86
2022/12/10 13:02:07;;;;;;;72.85;31.05;;;4.00;99.90;;;;;;5010889;28;20049;-86